Etusivu
METAR-TAF:

METAR-TAF

Lentoasemat :

Bella Coola, Brittiläinen Kolumbia, Kanada

Leveyspiiri: 52-23N, Pituuspiiri: 126-35W, korkeus merenpinnasta: 35 m

Tämänhetkinen sää

Tämä raportti tehtiin 11 tuntia ja 42 minuuttia sitten, kello 01.00 UTC
tyyntä
Lämpötila 7°C
Kosteus 100%
Ilmanpaine 1009 hPa
Näkyvyys: 24.1 km
Muutamia pilviä 200 ft:n korkeudessa
Hajanaisia pilviä 7100 ft:n korkeudessa
Hajonneita pilviä 8800 ft:n korkeudessa
Pilvistä 20000 ft:n korkeudessa

METAR: CYBD 150100Z 00000KT 15SM FEW002 SCT071 BKN088 OVC200 07/07 A2981 RMK SF1AC4AC2CS2 SF TR LAST STFD OBS/NEXT 151500 SLP097

Aika: 04:42 (12:42 UTC)


TAF: puuttuu

Säähavainnot ja -ennusteet yli 4000 lentoasemalta (METAR- ja TAF-raportit).

Käytössä olevat sääasemat on merkitty karttaan keltaisilla ja punaisilla pisteillä.

Aseta hiiri pisteen päälle nähdäksesi sääaseman nimen.

Klikkaa sitten nähdäksesi säähavainnot ja -ennusteet.

Kartan vaihtaminen: klikkaa mustalla rastilla varustettuja vihreitä pisteitä, niin voit zoomata sisään; viivalla varustettua vihreää pistettä, niin voit zoomata ulos tai vihreitä nuolia, niin pääset viereisille kartoille.


METAR-TAF: